Eden, Wisconsin
Current Conditions -  °F | °C
As of 2:26 PM on Thursday 29 Jan 2015 (Local Time) from KFLD Reporting Station
Overcast Overcast  
Wind Chill: 24°   Ceiling: 3200
Heat Index: 34°   Visibility: 10mi
Dew Point: 24°   Wind: 16mph
Humidity: 67%   Direction: 330°NNW
Pressure: 29.98"   Gusts: NA
Location:  43.69°N, 88.36°W
Report Text: KFLD 292026Z AUTO 33014KT 10SM OVC032 01/M04 A2998 RMK AO2 T00111044
Loading
Personal Weather Stations






























Interactive Weather Map New forecast layout! Learn more

10-Day Weather Forecast

Advertisements
Track Severe Weather on mobile